Terminal Aerodrome Forecast
Issued by NWS

Home | Current Version | Previous Version | Text Only | Print | Product List | Glossary On
Versions: 1 2 3 4 5 6 7 8 9 10 11 12 13 14 15 16 17 18 19
000
FTUS41 KPBZ 301723
TAFZZV
TAF
KZZV 301723Z 3018/3118 15008KT P6SM BKN080
     FM310000 15010KT P6SM VCSH OVC090 WS020/20040KT
     FM310300 16008KT 5SM -SHRA OVC025 WS020/20045KT
     FM310900 15010KT 3SM -SHRA OVC010 WS020/20045KT
     FM311200 17008KT 3SM -SHRA OVC008 WS020/20045KT
     FM311500 20007KT 5SM -SHRA OVC015=

USA.gov is the U.S. government's official web portal to all federal, state and local government web resources and services.